Time;durP1;ratioP1;P1;durP2;ratioP2;P2;SDS_P1;SDS_P2;PMS_P1;PMS_P2;Temp;Humidity;BMP_temperature;BMP_pressure;BME280_temperature;BME280_humidity;BME280_pressure;Samples;Min_cycle;Max_cycle;Signal;HPM_P1;HPM_P2
2023/03/27 00:01:15;;;;;;;;;;;;;;;;;;5093357;28;19938;-67
2023/03/27 00:03:41;;;;;;;;;;;;;;;;;;5093658;28;19924;-66
2023/03/27 00:06:08;;;;;;;;;;;;;;;;;;5092465;28;20026;-68
2023/03/27 00:08:35;;;;;;;;;;;;;;;;;;5092817;28;19995;-67
2023/03/27 00:11:01;;;;;;;;;;;;;;;;;;5093548;28;19963;-68
2023/03/27 00:13:27;;;;;;;;;;;;;;;;;;5094487;28;19971;-67
2023/03/27 00:15:52;;;;;;;;;;;;;;;;;;5094508;28;20391;-68
2023/03/27 00:18:18;;;;;;;;;;;;;;;;;;5091155;28;19927;-66
2023/03/27 00:20:44;;;;;;;;;;;;;;;;;;5094690;28;19967;-68
2023/03/27 00:23:11;;;;;;;;;;;;;;;;;;5093450;28;19951;-67
2023/03/27 00:25:37;;;;;;;;;;;;;;;;;;5091015;28;19973;-67
2023/03/27 00:28:03;;;;;;;;;;;;;;;;;;5092907;28;19924;-67
2023/03/27 00:30:29;;;;;;;;;;;;;;;;;;5084465;28;20466;-67
2023/03/27 00:32:55;;;;;;;;;;;;;;;;;;5077803;28;19924;-68
2023/03/27 00:35:21;;;;;;;;;;;;;;;;;;5093462;28;20400;-67
2023/03/27 00:37:47;;;;;;;;;;;;;;;;;;5076038;28;20399;-68
2023/03/27 00:40:14;;;;;;;;;;;;;;;;;;5073428;28;19920;-68
2023/03/27 00:42:40;;;;;;;;;;;;;;;;;;5072279;28;19921;-68
2023/03/27 00:45:06;;;;;;;;;;;;;;;;;;5073548;28;19920;-68
2023/03/27 00:47:32;;;;;;;;;;;;;;;;;;5081456;28;19924;-68
2023/03/27 00:49:58;;;;;;;;;;;;;;;;;;5093767;28;19920;-68
2023/03/27 00:52:28;;;;;;;;;;;;;;;;;;5093908;28;19920;-67
2023/03/27 00:54:54;;;;;;;;;;;;;;;;;;5093717;28;19974;-67
2023/03/27 00:57:20;;;;;;;;;;;;;;;;;;5092404;28;19978;-67
2023/03/27 00:59:46;;;;;;;;;;;;;;;;;;5092297;28;19927;-67
2023/03/27 01:02:12;;;;;;;;;;;;;;;;;;5093558;28;20266;-67
2023/03/27 01:04:38;;;;;;;;;;;;;;;;;;5089407;28;19973;-67
2023/03/27 01:07:06;;;;;;;;;;;;;;;;;;5093908;28;19920;-67
2023/03/27 01:09:32;;;;;;;;;;;;;;;;;;5093434;28;19963;-67
2023/03/27 01:11:58;;;;;;;;;;;;;;;;;;5092371;28;20006;-67
2023/03/27 01:14:24;;;;;;;;;;;;;;;;;;5093141;28;20027;-68
2023/03/27 01:16:50;;;;;;;;;;;;;;;;;;5093343;28;19931;-67
2023/03/27 01:19:15;;;;;;;;;;;;;;;;;;5090557;28;20312;-67
2023/03/27 01:21:41;;;;;;;;;;;;;;;;;;5093471;28;19924;-67
2023/03/27 01:24:07;;;;;;;;;;;;;;;;;;5093105;28;20290;-67
2023/03/27 01:26:33;;;;;;;;;;;;;;;;;;5090760;28;20327;-67
2023/03/27 01:28:59;;;;;;;;;;;;;;;;;;5093307;28;19920;-68
2023/03/27 01:31:25;;;;;;;;;;;;;;;;;;5093173;28;19920;-67
2023/03/27 01:33:51;;;;;;;;;;;;;;;;;;5091762;28;19974;-67
2023/03/27 01:36:17;;;;;;;;;;;;;;;;;;5092721;28;19932;-67
2023/03/27 01:38:43;;;;;;;;;;;;;;;;;;5091683;28;19920;-67
2023/03/27 01:41:09;;;;;;;;;;;;;;;;;;5091501;28;19920;-67
2023/03/27 01:43:35;;;;;;;;;;;;;;;;;;5093105;28;19924;-67
2023/03/27 01:46:01;;;;;;;;;;;;;;;;;;5092753;28;20274;-67
2023/03/27 01:48:26;;;;;;;;;;;;;;;;;;5089324;28;19920;-67
2023/03/27 01:50:52;;;;;;;;;;;;;;;;;;5091323;28;19924;-67
2023/03/27 01:53:18;;;;;;;;;;;;;;;;;;5092237;28;19931;-67
2023/03/27 01:55:44;;;;;;;;;;;;;;;;;;5092591;28;19973;-67
2023/03/27 01:58:12;;;;;;;;;;;;;;;;;;5092724;28;20353;-67
2023/03/27 02:00:38;;;;;;;;;;;;;;;;;;5091641;28;19999;-67
2023/03/27 02:03:04;;;;;;;;;;;;;;;;;;5092695;28;20081;-67
2023/03/27 02:05:30;;;;;;;;;;;;;;;;;;5091395;28;19928;-66
2023/03/27 02:07:56;;;;;;;;;;;;;;;;;;5092603;28;19924;-68
2023/03/27 02:10:22;;;;;;;;;;;;;;;;;;5092232;28;19943;-67
2023/03/27 02:12:48;;;;;;;;;;;;;;;;;;5091571;28;19920;-67
2023/03/27 02:15:14;;;;;;;;;;;;;;;;;;5092265;28;19930;-67
2023/03/27 02:17:40;;;;;;;;;;;;;;;;;;5092350;28;19924;-67
2023/03/27 02:20:15;;;;;;;;;;;;;;;;;;5092120;28;19973;-67
2023/03/27 02:22:41;;;;;;;;;;;;;;;;;;5092123;28;19924;-68
2023/03/27 02:25:06;;;;;;;;;;;;;;;;;;5092154;28;20409;-67
2023/03/27 02:27:32;;;;;;;;;;;;;;;;;;5074077;28;19920;-67
2023/03/27 02:29:58;;;;;;;;;;;;;;;;;;5092372;28;20532;-68
2023/03/27 02:32:24;;;;;;;;;;;;;;;;;;5089590;28;20281;-68
2023/03/27 02:34:50;;;;;;;;;;;;;;;;;;5090966;28;19975;-68
2023/03/27 02:37:18;;;;;;;;;;;;;;;;;;5092129;28;20360;-67
2023/03/27 02:39:43;;;;;;;;;;;;;;;;;;5091962;28;19956;-68
2023/03/27 02:42:09;;;;;;;;;;;;;;;;;;5092099;28;19970;-67
2023/03/27 02:44:35;;;;;;;;;;;;;;;;;;5090582;28;19920;-68
2023/03/27 02:47:01;;;;;;;;;;;;;;;;;;5091022;28;19964;-67
2023/03/27 02:49:27;;;;;;;;;;;;;;;;;;5092057;28;19928;-67
2023/03/27 02:51:53;;;;;;;;;;;;;;;;;;5090008;28;19931;-67
2023/03/27 02:54:20;;;;;;;;;;;;;;;;;;5091952;28;19927;-67
2023/03/27 02:56:46;;;;;;;;;;;;;;;;;;5091717;28;20584;-67
2023/03/27 02:59:12;;;;;;;;;;;;;;;;;;5090417;28;19931;-67
2023/03/27 03:01:37;;;;;;;;;;;;;;;;;;5091964;28;20002;-67
2023/03/27 03:04:03;;;;;;;;;;;;;;;;;;5091404;28;20383;-68
2023/03/27 03:06:29;;;;;;;;;;;;;;;;;;5095756;28;20491;-67
2023/03/27 03:09:00;;;;;;;;;;;;;;;;;;5094730;28;19924;-67
2023/03/27 03:11:26;;;;;;;;;;;;;;;;;;5094438;28;19932;-67
2023/03/27 03:13:52;;;;;;;;;;;;;;;;;;5095723;28;20015;-67
2023/03/27 03:16:18;;;;;;;;;;;;;;;;;;5094397;28;19932;-68
2023/03/27 03:18:45;;;;;;;;;;;;;;;;;;5095497;28;19924;-68
2023/03/27 03:21:10;;;;;;;;;;;;;;;;;;5093505;28;19924;-68
2023/03/27 03:23:37;;;;;;;;;;;;;;;;;;5095405;28;20015;-68
2023/03/27 03:26:03;;;;;;;;;;;;;;;;;;5094107;28;19931;-67
2023/03/27 03:28:29;;;;;;;;;;;;;;;;;;5093994;28;19920;-67
2023/03/27 03:30:57;;;;;;;;;;;;;;;;;;5077005;28;19920;-67
2023/03/27 03:33:24;;;;;;;;;;;;;;;;;;5095035;28;20015;-67
2023/03/27 03:35:50;;;;;;;;;;;;;;;;;;5093193;28;20425;-67
2023/03/27 03:38:25;;;;;;;;;;;;;;;;;;5093735;28;19949;-67
2023/03/27 03:40:51;;;;;;;;;;;;;;;;;;5094731;28;20010;-67
2023/03/27 03:43:17;;;;;;;;;;;;;;;;;;5094534;28;19928;-67
2023/03/27 03:45:43;;;;;;;;;;;;;;;;;;5094130;28;19927;-67
2023/03/27 03:48:09;;;;;;;;;;;;;;;;;;5094056;28;20285;-67
2023/03/27 03:50:35;;;;;;;;;;;;;;;;;;5092891;28;19971;-67
2023/03/27 03:53:01;;;;;;;;;;;;;;;;;;5093372;28;20334;-67
2023/03/27 03:55:27;;;;;;;;;;;;;;;;;;5092436;28;19928;-67
2023/03/27 03:57:53;;;;;;;;;;;;;;;;;;5094714;28;19931;-67
2023/03/27 04:00:19;;;;;;;;;;;;;;;;;;5091170;28;19924;-67
2023/03/27 04:02:44;;;;;;;;;;;;;;;;;;5092741;28;19924;-68
2023/03/27 04:05:10;;;;;;;;;;;;;;;;;;5094885;28;19927;-67
2023/03/27 04:07:38;;;;;;;;;;;;;;;;;;5094555;28;20262;-68
2023/03/27 04:10:04;;;;;;;;;;;;;;;;;;5092231;28;19920;-67
2023/03/27 04:12:30;;;;;;;;;;;;;;;;;;5094359;28;19951;-68
2023/03/27 04:14:56;;;;;;;;;;;;;;;;;;5094057;28;19927;-67
2023/03/27 04:17:25;;;;;;;;;;;;;;;;;;5094550;28;19928;-67
2023/03/27 04:19:53;;;;;;;;;;;;;;;;;;5092970;28;19920;-68
2023/03/27 04:22:21;;;;;;;;;;;;;;;;;;5094557;28;20347;-67
2023/03/27 04:24:49;;;;;;;;;;;;;;;;;;5094471;28;19924;-67
2023/03/27 04:27:15;;;;;;;;;;;;;;;;;;5091010;28;20003;-67
2023/03/27 04:29:42;;;;;;;;;;;;;;;;;;5092867;28;20003;-63
2023/03/27 04:32:11;;;;;;;;;;;;;;;;;;5094410;28;19928;-63
2023/03/27 04:34:39;;;;;;;;;;;;;;;;;;5094351;28;19924;-63
2023/03/27 04:37:05;;;;;;;;;;;;;;;;;;5094195;28;20448;-63
2023/03/27 04:39:35;;;;;;;;;;;;;;;;;;5094281;28;20015;-63
2023/03/27 04:42:01;;;;;;;;;;;;;;;;;;5076116;28;19970;-63
2023/03/27 04:44:27;;;;;;;;;;;;;;;;;;5091212;28;19970;-63
2023/03/27 04:46:53;;;;;;;;;;;;;;;;;;5093968;28;20361;-63
2023/03/27 04:49:19;;;;;;;;;;;;;;;;;;5092302;28;19938;-63
2023/03/27 04:51:45;;;;;;;;;;;;;;;;;;5092272;28;19924;-63
2023/03/27 04:54:11;;;;;;;;;;;;;;;;;;5092016;28;19927;-63
2023/03/27 04:56:37;;;;;;;;;;;;;;;;;;5093856;28;19932;-63
2023/03/27 04:59:03;;;;;;;;;;;;;;;;;;5074915;28;19924;-63
2023/03/27 05:01:29;;;;;;;;;;;;;;;;;;5093547;28;19920;-63
2023/03/27 05:03:55;;;;;;;;;;;;;;;;;;5093568;28;19920;-63
2023/03/27 05:06:21;;;;;;;;;;;;;;;;;;5093538;28;20288;-63
2023/03/27 05:08:46;;;;;;;;;;;;;;;;;;5093510;28;19979;-63
2023/03/27 05:11:12;;;;;;;;;;;;;;;;;;5092398;28;19969;-63
2023/03/27 05:13:38;;;;;;;;;;;;;;;;;;5093209;28;19985;-63
2023/03/27 05:16:04;;;;;;;;;;;;;;;;;;5092197;28;20389;-63
2023/03/27 05:18:30;;;;;;;;;;;;;;;;;;5091663;28;19920;-63
2023/03/27 05:20:56;;;;;;;;;;;;;;;;;;5093292;28;19924;-63
2023/03/27 05:23:22;;;;;;;;;;;;;;;;;;5093003;28;20015;-63
2023/03/27 05:25:48;;;;;;;;;;;;;;;;;;5092834;28;19924;-63
2023/03/27 05:28:14;;;;;;;;;;;;;;;;;;5090202;28;19920;-62
2023/03/27 05:30:43;;;;;;;;;;;;;;;;;;5092559;28;19920;-62
2023/03/27 05:33:12;;;;;;;;;;;;;;;;;;5090760;28;19969;-63
2023/03/27 05:35:40;;;;;;;;;;;;;;;;;;5091512;28;19920;-62
2023/03/27 05:38:07;;;;;;;;;;;;;;;;;;5092982;28;20503;-62
2023/03/27 05:40:33;;;;;;;;;;;;;;;;;;5092824;28;19971;-62
2023/03/27 05:42:59;;;;;;;;;;;;;;;;;;5092930;28;19931;-63
2023/03/27 05:45:25;;;;;;;;;;;;;;;;;;5092972;28;19920;-62
2023/03/27 05:47:51;;;;;;;;;;;;;;;;;;5091543;28;20404;-62
2023/03/27 05:50:17;;;;;;;;;;;;;;;;;;5090103;28;19981;-62
2023/03/27 05:52:43;;;;;;;;;;;;;;;;;;5092338;28;19924;-63
2023/03/27 05:55:09;;;;;;;;;;;;;;;;;;5090196;28;19920;-62
2023/03/27 05:57:35;;;;;;;;;;;;;;;;;;5091882;28;20011;-61
2023/03/27 06:00:01;;;;;;;;;;;;;;;;;;5092145;28;20105;-62
2023/03/27 06:02:27;;;;;;;;;;;;;;;;;;5089471;28;20191;-63
2023/03/27 06:04:53;;;;;;;;;;;;;;;;;;5091599;28;19999;-63
2023/03/27 06:07:19;;;;;;;;;;;;;;;;;;5090365;28;20621;-63
2023/03/27 06:09:45;;;;;;;;;;;;;;;;;;5091351;28;19924;-63
2023/03/27 06:12:11;;;;;;;;;;;;;;;;;;5092013;28;20296;-63
2023/03/27 06:14:37;;;;;;;;;;;;;;;;;;5073397;28;19924;-63
2023/03/27 06:17:03;;;;;;;;;;;;;;;;;;5090958;28;19934;-63
2023/03/27 06:19:29;;;;;;;;;;;;;;;;;;5092091;28;20358;-63
2023/03/27 06:21:55;;;;;;;;;;;;;;;;;;5092354;28;19931;-63
2023/03/27 06:24:21;;;;;;;;;;;;;;;;;;5092697;28;19919;-63
2023/03/27 06:26:47;;;;;;;;;;;;;;;;;;5092672;28;20102;-62
2023/03/27 06:29:13;;;;;;;;;;;;;;;;;;5092837;28;19924;-63
2023/03/27 06:31:38;;;;;;;;;;;;;;;;;;5091005;28;20435;-63
2023/03/27 06:34:04;;;;;;;;;;;;;;;;;;5092776;28;19920;-63
2023/03/27 06:36:31;;;;;;;;;;;;;;;;;;5091953;28;19969;-63
2023/03/27 06:38:57;;;;;;;;;;;;;;;;;;5092385;28;19924;-63
2023/03/27 06:41:23;;;;;;;;;;;;;;;;;;5091102;28;20443;-63
2023/03/27 06:43:48;;;;;;;;;;;;;;;;;;5092860;28;19928;-63
2023/03/27 06:46:14;;;;;;;;;;;;;;;;;;5090586;28;20288;-64
2023/03/27 06:48:40;;;;;;;;;;;;;;;;;;5092690;28;19927;-63
2023/03/27 06:51:06;;;;;;;;;;;;;;;;;;5092717;28;19975;-63
2023/03/27 06:53:32;;;;;;;;;;;;;;;;;;5092355;28;20547;-63
2023/03/27 06:55:58;;;;;;;;;;;;;;;;;;5092475;28;20015;-63
2023/03/27 06:58:24;;;;;;;;;;;;;;;;;;5074854;28;19924;-63
2023/03/27 07:00:50;;;;;;;;;;;;;;;;;;5092054;28;20365;-63
2023/03/27 07:03:16;;;;;;;;;;;;;;;;;;5092816;28;20011;-63
2023/03/27 07:05:42;;;;;;;;;;;;;;;;;;5092387;28;19927;-63
2023/03/27 07:08:08;;;;;;;;;;;;;;;;;;5091009;28;20344;-63
2023/03/27 07:10:34;;;;;;;;;;;;;;;;;;5092492;28;20377;-63
2023/03/27 07:13:00;;;;;;;;;;;;;;;;;;5092627;28;20323;-64
2023/03/27 07:15:26;;;;;;;;;;;;;;;;;;5091328;28;20625;-64
2023/03/27 07:17:52;;;;;;;;;;;;;;;;;;5092470;28;19924;-64
2023/03/27 07:20:18;;;;;;;;;;;;;;;;;;5089098;28;19924;-63
2023/03/27 07:22:44;;;;;;;;;;;;;;;;;;5092458;28;20431;-63
2023/03/27 07:25:11;;;;;;;;;;;;;;;;;;5092134;28;19920;-63
2023/03/27 07:27:37;;;;;;;;;;;;;;;;;;5091189;28;19965;-63
2023/03/27 07:30:03;;;;;;;;;;;;;;;;;;5092387;28;19926;-63
2023/03/27 07:32:31;;;;;;;;;;;;;;;;;;5092060;28;20014;-63
2023/03/27 07:34:57;;;;;;;;;;;;;;;;;;5090986;28;19931;-64
2023/03/27 07:37:23;;;;;;;;;;;;;;;;;;5092060;28;19924;-64
2023/03/27 07:39:49;;;;;;;;;;;;;;;;;;5092631;28;20396;-64
2023/03/27 07:42:15;;;;;;;;;;;;;;;;;;5091623;28;19924;-64
2023/03/27 07:44:41;;;;;;;;;;;;;;;;;;5085443;28;19924;-64
2023/03/27 07:47:07;;;;;;;;;;;;;;;;;;5092213;28;19947;-64
2023/03/27 07:49:33;;;;;;;;;;;;;;;;;;5092198;28;19927;-64
2023/03/27 07:51:59;;;;;;;;;;;;;;;;;;5095138;28;20341;-64
2023/03/27 07:54:25;;;;;;;;;;;;;;;;;;5094835;28;19965;-63
2023/03/27 07:56:52;;;;;;;;;;;;;;;;;;5093858;28;19949;-63
2023/03/27 07:59:19;;;;;;;;;;;;;;;;;;5093855;28;20381;-63
2023/03/27 08:01:45;;;;;;;;;;;;;;;;;;5093664;28;20468;-63
2023/03/27 08:04:11;;;;;;;;;;;;;;;;;;5078059;28;19920;-63
2023/03/27 08:06:37;;;;;;;;;;;;;;;;;;5091826;28;19921;-64
2023/03/27 08:09:04;;;;;;;;;;;;;;;;;;5094233;28;19946;-63
2023/03/27 08:11:30;;;;;;;;;;;;;;;;;;5094966;28;19959;-62
2023/03/27 08:13:57;;;;;;;;;;;;;;;;;;5094692;28;20369;-63
2023/03/27 08:16:26;;;;;;;;;;;;;;;;;;5094743;28;19931;-63
2023/03/27 08:18:52;;;;;;;;;;;;;;;;;;5093181;28;19963;-63
2023/03/27 08:21:19;;;;;;;;;;;;;;;;;;5094777;28;19963;-63
2023/03/27 08:23:44;;;;;;;;;;;;;;;;;;5094794;28;19927;-63
2023/03/27 08:26:12;;;;;;;;;;;;;;;;;;5075373;28;19923;-63
2023/03/27 08:28:38;;;;;;;;;;;;;;;;;;5092560;28;19951;-63
2023/03/27 08:31:04;;;;;;;;;;;;;;;;;;5078145;28;19924;-63
2023/03/27 08:33:30;;;;;;;;;;;;;;;;;;5093652;28;19920;-63
2023/03/27 08:35:56;;;;;;;;;;;;;;;;;;5093971;28;20444;-63
2023/03/27 08:38:22;;;;;;;;;;;;;;;;;;5093666;28;20388;-63
2023/03/27 08:40:48;;;;;;;;;;;;;;;;;;5091675;28;19928;-63
2023/03/27 08:43:14;;;;;;;;;;;;;;;;;;5092119;28;19935;-63
2023/03/27 08:45:40;;;;;;;;;;;;;;;;;;5093494;28;19926;-64
2023/03/27 08:48:06;;;;;;;;;;;;;;;;;;5093429;28;19926;-64
2023/03/27 08:50:32;;;;;;;;;;;;;;;;;;5093936;28;19934;-63
2023/03/27 08:52:58;;;;;;;;;;;;;;;;;;5089064;28;19924;-64
2023/03/27 08:55:27;;;;;;;;;;;;;;;;;;5091972;28;19924;-63
2023/03/27 08:57:53;;;;;;;;;;;;;;;;;;5089187;28;19975;-62
2023/03/27 09:00:20;;;;;;;;;;;;;;;;;;5094053;28;20338;-63
2023/03/27 09:02:47;;;;;;;;;;;;;;;;;;5075701;28;20572;-63
2023/03/27 09:05:13;;;;;;;;;;;;;;;;;;5093860;28;19924;-62
2023/03/27 09:07:39;;;;;;;;;;;;;;;;;;5093863;28;20455;-64
2023/03/27 09:10:05;;;;;;;;;;;;;;;;;;5093738;28;19924;-63
2023/03/27 09:12:31;;;;;;;;;;;;;;;;;;5093560;28;19920;-63
2023/03/27 09:14:57;;;;;;;;;;;;;;;;;;5090230;28;19925;-63
2023/03/27 09:17:23;;;;;;;;;;;;;;;;;;5075636;28;20598;-63
2023/03/27 09:19:49;;;;;;;;;;;;;;;;;;5090137;28;19951;-63
2023/03/27 09:22:14;;;;;;;;;;;;;;;;;;5078140;28;19925;-64
2023/03/27 09:24:40;;;;;;;;;;;;;;;;;;5086887;28;19927;-64
2023/03/27 09:27:07;;;;;;;;;;;;;;;;;;5087021;28;19928;-64
2023/03/27 09:29:33;;;;;;;;;;;;;;;;;;5087102;28;20281;-64
2023/03/27 09:31:59;;;;;;;;;;;;;;;;;;5083916;28;19959;-64
2023/03/27 09:34:25;;;;;;;;;;;;;;;;;;5082874;28;20502;-63
2023/03/27 09:36:51;;;;;;;;;;;;;;;;;;5081842;28;19928;-63
2023/03/27 09:39:20;;;;;;;;;;;;;;;;;;5084400;28;19924;-63
2023/03/27 09:41:46;;;;;;;;;;;;;;;;;;5085639;28;19924;-63
2023/03/27 09:44:12;;;;;;;;;;;;;;;;;;5090804;28;19924;-64
2023/03/27 09:46:38;;;;;;;;;;;;;;;;;;5090034;28;19920;-63
2023/03/27 09:49:04;;;;;;;;;;;;;;;;;;5089661;28;19920;-64
2023/03/27 09:51:30;;;;;;;;;;;;;;;;;;5092517;28;19959;-63
2023/03/27 09:53:56;;;;;;;;;;;;;;;;;;5085746;28;19924;-63
2023/03/27 09:56:22;;;;;;;;;;;;;;;;;;5085431;28;19928;-64
2023/03/27 09:58:48;;;;;;;;;;;;;;;;;;5091196;28;20275;-64
2023/03/27 10:01:19;;;;;;;;;;;;;;;;;;5092555;28;19981;-63
2023/03/27 10:03:47;;;;;;;;;;;;;;;;;;5091758;28;19942;-63
2023/03/27 10:06:13;;;;;;;;;;;;;;;;;;5080841;28;19920;-63
2023/03/27 10:08:43;;;;;;;;;;;;;;;;;;5085213;28;19976;-64
2023/03/27 10:11:08;;;;;;;;;;;;;;;;;;5091448;28;19963;-64
2023/03/27 10:13:35;;;;;;;;;;;;;;;;;;5072800;28;19974;-64
2023/03/27 10:16:01;;;;;;;;;;;;;;;;;;5092305;28;20262;-64
2023/03/27 10:18:26;;;;;;;;;;;;;;;;;;5091834;28;20011;-64
2023/03/27 10:20:52;;;;;;;;;;;;;;;;;;5090194;28;19976;-63
2023/03/27 10:23:18;;;;;;;;;;;;;;;;;;5091259;28;19960;-64
2023/03/27 10:25:44;;;;;;;;;;;;;;;;;;5085988;28;20342;-63
2023/03/27 10:28:10;;;;;;;;;;;;;;;;;;5084445;28;19973;-64
2023/03/27 10:30:37;;;;;;;;;;;;;;;;;;5086138;28;20007;-64
2023/03/27 10:35:31;;;;;;;;;;;;;;;;;;5113581;27;19934;-63
2023/03/27 10:37:58;;;;;;;;;;;;;;;;;;5107781;28;21368;-63
2023/03/27 10:40:24;;;;;;;;;;;;;;;;;;5104200;28;20015;-63
2023/03/27 10:42:50;;;;;;;;;;;;;;;;;;5089479;28;19955;-63
2023/03/27 10:45:16;;;;;;;;;;;;;;;;;;5104554;28;19920;-64
2023/03/27 10:47:42;;;;;;;;;;;;;;;;;;5103198;28;19924;-63
2023/03/27 10:50:08;;;;;;;;;;;;;;;;;;5111312;28;19920;-64
2023/03/27 10:52:34;;;;;;;;;;;;;;;;;;5116480;28;19923;-64
2023/03/27 10:55:00;;;;;;;;;;;;;;;;;;5111804;28;19962;-64
2023/03/27 10:57:26;;;;;;;;;;;;;;;;;;5107848;28;20381;-63
2023/03/27 10:59:52;;;;;;;;;;;;;;;;;;5112532;28;19926;-64
2023/03/27 11:02:18;;;;;;;;;;;;;;;;;;5112461;28;19920;-64
2023/03/27 11:04:44;;;;;;;;;;;;;;;;;;5112451;28;20363;-63
2023/03/27 11:07:10;;;;;;;;;;;;;;;;;;5112679;28;19923;-63
2023/03/27 11:09:36;;;;;;;;;;;;;;;;;;5130979;28;19923;-63
2023/03/27 11:12:03;;;;;;;;;;;;;;;;;;5133082;28;20027;-63
2023/03/27 11:14:29;;;;;;;;;;;;;;;;;;5109937;28;20269;-63
2023/03/27 11:16:55;;;;;;;;;;;;;;;;;;5111423;28;19920;-63
2023/03/27 11:19:22;;;;;;;;;;;;;;;;;;5094241;28;20376;-64
2023/03/27 11:21:48;;;;;;;;;;;;;;;;;;5112370;28;19920;-63
2023/03/27 11:24:14;;;;;;;;;;;;;;;;;;5111124;28;19969;-64
2023/03/27 11:26:41;;;;;;;;;;;;;;;;;;5115718;28;20315;-65
2023/03/27 11:29:10;;;;;;;;;;;;;;;;;;5115630;28;19919;-63
2023/03/27 11:31:36;;;;;;;;;;;;;;;;;;5097721;28;19971;-62
2023/03/27 11:34:05;;;;;;;;;;;;;;;;;;5115687;28;19924;-63
2023/03/27 11:36:31;;;;;;;;;;;;;;;;;;5115449;28;20007;-61
2023/03/27 11:38:57;;;;;;;;;;;;;;;;;;5114378;28;20323;-61
2023/03/27 11:41:23;;;;;;;;;;;;;;;;;;5115709;28;19924;-61
2023/03/27 11:43:49;;;;;;;;;;;;;;;;;;5135130;27;19919;-61
2023/03/27 11:46:15;;;;;;;;;;;;;;;;;;5105620;27;19929;-61
2023/03/27 11:48:41;;;;;;;;;;;;;;;;;;5095315;28;19920;-62
2023/03/27 11:51:07;;;;;;;;;;;;;;;;;;5094723;28;20352;-62
2023/03/27 11:53:33;;;;;;;;;;;;;;;;;;5094967;28;20018;-62
2023/03/27 11:55:59;;;;;;;;;;;;;;;;;;5111058;28;19999;-62
2023/03/27 11:58:28;;;;;;;;;;;;;;;;;;5114916;28;20357;-62
2023/03/27 12:00:54;;;;;;;;;;;;;;;;;;5113696;28;19920;-63
2023/03/27 12:03:20;;;;;;;;;;;;;;;;;;5106562;28;19934;-64
2023/03/27 12:05:47;;;;;;;;;;;;;;;;;;5114987;28;19931;-62
2023/03/27 12:08:13;;;;;;;;;;;;;;;;;;5111849;28;19919;-63
2023/03/27 12:10:41;;;;;;;;;;;;;;;;;;5115063;28;20479;-63
2023/03/27 12:13:07;;;;;;;;;;;;;;;;;;5115092;28;19920;-63
2023/03/27 12:15:33;;;;;;;;;;;;;;;;;;5113310;28;19930;-62
2023/03/27 12:17:59;;;;;;;;;;;;;;;;;;5114632;28;19932;-62
2023/03/27 12:20:26;;;;;;;;;;;;;;;;;;5114573;28;19924;-62
2023/03/27 12:22:52;;;;;;;;;;;;;;;;;;5114756;28;19924;-63
2023/03/27 12:25:18;;;;;;;;;;;;;;;;;;5105921;28;19920;-63
2023/03/27 12:27:46;;;;;;;;;;;;;;;;;;5108934;28;19923;-63
2023/03/27 12:30:12;;;;;;;;;;;;;;;;;;5112747;28;19919;-63
2023/03/27 12:32:37;;;;;;;;;;;;;;;;;;5113230;28;20246;-63
2023/03/27 12:35:05;;;;;;;;;;;;;;;;;;5113062;28;19976;-63
2023/03/27 12:37:33;;;;;;;;;;;;;;;;;;5108726;28;19920;-63
2023/03/27 12:39:59;;;;;;;;;;;;;;;;;;5112673;28;20319;-63
2023/03/27 12:42:25;;;;;;;;;;;;;;;;;;5112473;28;19931;-63
2023/03/27 12:44:51;;;;;;;;;;;;;;;;;;5112893;28;19924;-63
2023/03/27 12:47:17;;;;;;;;;;;;;;;;;;5112632;28;20288;-63
2023/03/27 12:49:42;;;;;;;;;;;;;;;;;;5112544;28;20285;-63
2023/03/27 12:52:09;;;;;;;;;;;;;;;;;;5112010;28;20353;-63
2023/03/27 12:54:37;;;;;;;;;;;;;;;;;;5111249;28;19950;-63
2023/03/27 12:57:04;;;;;;;;;;;;;;;;;;5113905;28;19926;-63
2023/03/27 12:59:30;;;;;;;;;;;;;;;;;;5112511;28;20633;-63
2023/03/27 13:01:56;;;;;;;;;;;;;;;;;;5113783;28;20010;-63
2023/03/27 13:04:22;;;;;;;;;;;;;;;;;;5113520;28;19926;-63
2023/03/27 13:06:49;;;;;;;;;;;;;;;;;;5113649;28;19923;-63
2023/03/27 13:09:15;;;;;;;;;;;;;;;;;;5113819;28;20511;-63
2023/03/27 13:11:41;;;;;;;;;;;;;;;;;;5112844;28;20018;-63
2023/03/27 13:14:07;;;;;;;;;;;;;;;;;;5113334;28;19930;-63
2023/03/27 13:16:33;;;;;;;;;;;;;;;;;;5113673;28;19924;-63
2023/03/27 13:18:59;;;;;;;;;;;;;;;;;;5113629;28;19943;-64
2023/03/27 13:21:25;;;;;;;;;;;;;;;;;;5112089;28;20381;-64
2023/03/27 13:23:51;;;;;;;;;;;;;;;;;;5113666;28;19930;-64
2023/03/27 13:26:17;;;;;;;;;;;;;;;;;;5109715;28;19920;-64
2023/03/27 13:28:45;;;;;;;;;;;;;;;;;;5112213;28;20353;-64
2023/03/27 13:31:13;;;;;;;;;;;;;;;;;;5112147;28;19919;-63
2023/03/27 13:33:38;;;;;;;;;;;;;;;;;;5108100;28;20022;-62
2023/03/27 13:36:04;;;;;;;;;;;;;;;;;;5111791;28;20014;-62
2023/03/27 13:38:31;;;;;;;;;;;;;;;;;;5112551;28;20638;-62
2023/03/27 13:40:56;;;;;;;;;;;;;;;;;;5111291;28;20475;-63
2023/03/27 13:43:24;;;;;;;;;;;;;;;;;;5111178;28;19926;-63
2023/03/27 13:45:49;;;;;;;;;;;;;;;;;;5112402;28;20462;-63
2023/03/27 13:48:16;;;;;;;;;;;;;;;;;;5109499;28;19959;-63
2023/03/27 13:50:42;;;;;;;;;;;;;;;;;;5101690;28;19920;-63
2023/03/27 13:53:08;;;;;;;;;;;;;;;;;;5110724;28;19930;-63
2023/03/27 13:55:35;;;;;;;;;;;;;;;;;;5110664;28;19924;-63
2023/03/27 13:58:01;;;;;;;;;;;;;;;;;;5105248;28;19974;-63
2023/03/27 14:00:27;;;;;;;;;;;;;;;;;;5111839;28;19974;-63
2023/03/27 14:02:53;;;;;;;;;;;;;;;;;;5111987;28;19920;-63
2023/03/27 14:05:19;;;;;;;;;;;;;;;;;;5112682;28;19920;-64
2023/03/27 14:07:45;;;;;;;;;;;;;;;;;;5110925;28;20428;-63
2023/03/27 14:10:11;;;;;;;;;;;;;;;;;;5107982;28;19931;-61
2023/03/27 14:12:37;;;;;;;;;;;;;;;;;;5100319;28;19970;-62
2023/03/27 14:15:03;;;;;;;;;;;;;;;;;;5112437;28;19928;-63
2023/03/27 14:17:29;;;;;;;;;;;;;;;;;;5112096;28;20030;-63
2023/03/27 14:19:55;;;;;;;;;;;;;;;;;;5110800;28;19920;-62
2023/03/27 14:22:22;;;;;;;;;;;;;;;;;;5112180;28;19927;-62
2023/03/27 14:24:48;;;;;;;;;;;;;;;;;;5110941;28;19969;-62
2023/03/27 14:27:14;;;;;;;;;;;;;;;;;;5091158;28;19924;-62
2023/03/27 14:29:40;;;;;;;;;;;;;;;;;;5106375;28;19924;-64
2023/03/27 14:32:06;;;;;;;;;;;;;;;;;;5105924;28;20034;-63
2023/03/27 14:34:33;;;;;;;;;;;;;;;;;;5111280;28;19923;-64
2023/03/27 14:36:59;;;;;;;;;;;;;;;;;;5112351;28;19931;-64
2023/03/27 14:39:30;;;;;;;;;;;;;;;;;;5110456;28;19950;-64
2023/03/27 14:41:56;;;;;;;;;;;;;;;;;;5111601;28;19928;-64
2023/03/27 14:44:22;;;;;;;;;;;;;;;;;;5108762;28;20003;-64
2023/03/27 14:46:48;;;;;;;;;;;;;;;;;;5098959;28;19973;-64
2023/03/27 14:49:14;;;;;;;;;;;;;;;;;;5111710;28;19920;-63
2023/03/27 14:51:40;;;;;;;;;;;;;;;;;;5111804;28;19919;-64
2023/03/27 14:54:06;;;;;;;;;;;;;;;;;;5111430;28;19931;-63
2023/03/27 14:56:35;;;;;;;;;;;;;;;;;;5110533;28;19923;-63
2023/03/27 14:59:02;;;;;;;;;;;;;;;;;;5111067;28;20277;-63
2023/03/27 15:01:30;;;;;;;;;;;;;;;;;;5112342;28;19935;-63
2023/03/27 15:03:56;;;;;;;;;;;;;;;;;;5112450;28;19931;-63
2023/03/27 15:06:25;;;;;;;;;;;;;;;;;;5115989;28;20603;-63
2023/03/27 15:08:51;;;;;;;;;;;;;;;;;;5129012;27;19993;-63
2023/03/27 15:11:17;;;;;;;;;;;;;;;;;;5114614;28;19927;-63
2023/03/27 15:13:43;;;;;;;;;;;;;;;;;;5115741;28;19920;-63
2023/03/27 15:16:08;;;;;;;;;;;;;;;;;;5115375;28;19934;-63
2023/03/27 15:18:34;;;;;;;;;;;;;;;;;;5109248;28;20285;-63
2023/03/27 15:21:01;;;;;;;;;;;;;;;;;;5104061;28;19969;-63
2023/03/27 15:23:30;;;;;;;;;;;;;;;;;;5115779;28;19924;-63
2023/03/27 15:25:55;;;;;;;;;;;;;;;;;;5097390;28;19928;-62
2023/03/27 15:28:23;;;;;;;;;;;;;;;;;;5114168;28;19923;-63
2023/03/27 15:30:50;;;;;;;;;;;;;;;;;;5114420;28;20403;-63
2023/03/27 15:33:19;;;;;;;;;;;;;;;;;;5114183;28;20454;-63
2023/03/27 15:35:44;;;;;;;;;;;;;;;;;;5110334;28;19927;-63
2023/03/27 15:38:10;;;;;;;;;;;;;;;;;;5115361;28;19930;-63
2023/03/27 15:40:37;;;;;;;;;;;;;;;;;;5114088;28;19920;-64
2023/03/27 15:43:03;;;;;;;;;;;;;;;;;;5115269;28;19949;-64
2023/03/27 15:45:29;;;;;;;;;;;;;;;;;;5113858;28;19920;-62
2023/03/27 15:47:55;;;;;;;;;;;;;;;;;;5115414;28;19969;-62
2023/03/27 15:50:26;;;;;;;;;;;;;;;;;;5109672;28;19920;-61
2023/03/27 15:52:52;;;;;;;;;;;;;;;;;;5113428;28;19919;-62
2023/03/27 15:55:18;;;;;;;;;;;;;;;;;;5114518;28;20321;-62
2023/03/27 15:57:45;;;;;;;;;;;;;;;;;;5115316;28;19927;-63
2023/03/27 16:00:11;;;;;;;;;;;;;;;;;;5115021;28;19962;-63
2023/03/27 16:02:37;;;;;;;;;;;;;;;;;;5114817;28;20436;-63
2023/03/27 16:05:03;;;;;;;;;;;;;;;;;;5112699;28;20002;-62
2023/03/27 16:07:29;;;;;;;;;;;;;;;;;;5112641;28;19943;-62
2023/03/27 16:09:55;;;;;;;;;;;;;;;;;;5105270;28;20018;-63
2023/03/27 16:12:21;;;;;;;;;;;;;;;;;;5113375;28;19955;-63
2023/03/27 16:14:47;;;;;;;;;;;;;;;;;;5114685;28;19931;-63
2023/03/27 16:17:19;;;;;;;;;;;;;;;;;;5111729;28;19920;-63
2023/03/27 16:19:45;;;;;;;;;;;;;;;;;;5114817;28;19924;-63
2023/03/27 16:22:12;;;;;;;;;;;;;;;;;;5114738;28;19920;-63
2023/03/27 16:24:37;;;;;;;;;;;;;;;;;;5113345;28;19920;-63
2023/03/27 16:27:03;;;;;;;;;;;;;;;;;;5094338;28;19923;-63
2023/03/27 16:29:29;;;;;;;;;;;;;;;;;;5094558;28;19920;-63
2023/03/27 16:31:56;;;;;;;;;;;;;;;;;;5094289;28;19977;-63
2023/03/27 16:34:22;;;;;;;;;;;;;;;;;;5105209;28;19928;-63
2023/03/27 16:36:48;;;;;;;;;;;;;;;;;;5112991;28;19924;-63
2023/03/27 16:39:13;;;;;;;;;;;;;;;;;;5113970;28;19949;-63
2023/03/27 16:41:39;;;;;;;;;;;;;;;;;;5110113;28;19927;-63